Time;durP1;ratioP1;P1;durP2;ratioP2;P2;SDS_P1;SDS_P2;PMS_P1;PMS_P2;Temp;Humidity;BMP_temperature;BMP_pressure;BME280_temperature;BME280_humidity;BME280_pressure;Samples;Min_cycle;Max_cycle;Signal;HPM_P1;HPM_P2
2023/10/21 00:00:31;;;;;;;0.00;0.00;;;;;;;11.88;100.00;96615.50;4943892;29;20038;-75
2023/10/21 00:02:57;;;;;;;0.00;0.00;;;;;;;11.82;100.00;96608.72;4925641;29;20027;-76
2023/10/21 00:05:24;;;;;;;0.00;0.00;;;;;;;11.84;100.00;96624.78;4925972;29;22091;-75
2023/10/21 00:07:50;;;;;;;0.00;0.00;;;;;;;11.75;100.00;96618.78;4944645;29;20031;-75
2023/10/21 00:10:16;;;;;;;0.00;0.00;;;;;;;11.77;100.00;96624.66;4939297;28;20050;-75
2023/10/21 00:12:44;;;;;;;0.00;0.00;;;;;;;11.72;100.00;96605.84;4946181;28;20486;-75
2023/10/21 00:15:10;;;;;;;0.00;0.00;;;;;;;11.78;100.00;96612.56;4944508;28;20086;-77
2023/10/21 00:17:36;;;;;;;0.00;0.00;;;;;;;11.72;100.00;96614.84;4940907;29;20478;-74
2023/10/21 00:20:03;;;;;;;0.00;0.00;;;;;;;11.76;100.00;96612.16;4924513;29;20038;-75
2023/10/21 00:22:29;;;;;;;0.00;0.00;;;;;;;11.64;100.00;96600.25;4939500;28;20111;-75
2023/10/21 00:24:54;;;;;;;0.00;0.00;;;;;;;11.65;100.00;96607.31;4939001;29;20103;-76
2023/10/21 00:27:19;;;;;;;0.00;0.00;;;;;;;11.61;100.00;96606.47;4938728;29;20039;-77
2023/10/21 00:29:45;;;;;;;0.00;0.00;;;;;;;11.63;100.00;96609.59;4927384;29;20114;-75
2023/10/21 00:32:10;;;;;;;0.00;0.00;;;;;;;11.52;100.00;96603.16;4943057;28;20061;-75
2023/10/21 00:34:39;;;;;;;0.00;0.00;;;;;;;11.52;100.00;96605.91;4941323;28;20461;-75
2023/10/21 00:37:05;;;;;;;0.00;0.00;;;;;;;11.43;100.00;96606.13;4922461;29;20130;-75
2023/10/21 00:39:34;;;;;;;0.00;0.00;;;;;;;11.39;100.00;96608.06;4928729;28;20070;-75
2023/10/21 00:42:04;;;;;;;0.00;0.00;;;;;;;11.41;100.00;96621.38;4915768;29;20548;-73
2023/10/21 00:44:30;;;;;;;0.00;0.00;;;;;;;11.32;100.00;96605.97;4941664;29;21338;-75
2023/10/21 00:46:56;;;;;;;0.03;0.03;;;;;;;11.32;100.00;96622.38;4949155;28;20024;-75
2023/10/21 00:49:22;;;;;;;0.00;0.00;;;;;;;11.27;100.00;96609.03;4942431;29;20027;-75
2023/10/21 00:51:48;;;;;;;0.00;0.00;;;;;;;11.23;100.00;96619.09;4927371;29;20031;-75
2023/10/21 00:54:16;;;;;;;0.00;0.00;;;;;;;11.21;100.00;96626.84;4947145;28;20070;-75
2023/10/21 00:56:42;;;;;;;0.00;0.00;;;;;;;11.16;100.00;96622.47;4944972;28;20025;-75
2023/10/21 00:59:10;;;;;;;0.00;0.00;;;;;;;11.14;100.00;96624.00;4947710;29;20088;-75
2023/10/21 01:01:35;;;;;;;0.00;0.00;;;;;;;11.16;100.00;96627.16;4940419;29;20034;-76
2023/10/21 01:04:02;;;;;;;0.00;0.00;;;;;;;11.20;100.00;96643.63;4947939;29;20031;-76
2023/10/21 01:06:27;;;;;;;0.00;0.00;;;;;;;11.18;100.00;96631.13;4946964;29;20062;-76
2023/10/21 01:08:53;;;;;;;0.00;0.00;;;;;;;11.15;100.00;96634.56;4924588;29;20546;-76
2023/10/21 01:11:18;;;;;;;0.00;0.00;;;;;;;11.09;100.00;96636.03;4949672;28;20466;-75
2023/10/21 01:13:48;;;;;;;0.00;0.00;;;;;;;11.13;100.00;96647.03;4950648;28;20031;-75
2023/10/21 01:16:14;;;;;;;0.00;0.00;;;;;;;11.11;100.00;96654.78;4939779;29;20471;-76
2023/10/21 01:18:39;;;;;;;0.00;0.00;;;;;;;11.06;100.00;96639.47;4938765;29;20038;-75
2023/10/21 01:21:08;;;;;;;0.00;0.00;;;;;;;11.11;100.00;96654.78;4931743;29;20035;-75
2023/10/21 01:23:34;;;;;;;0.00;0.00;;;;;;;11.11;100.00;96657.53;4947559;28;20031;-75
2023/10/21 01:26:00;;;;;;;0.00;0.00;;;;;;;11.09;100.00;96654.38;4924979;29;20035;-74
2023/10/21 01:28:26;;;;;;;0.00;0.00;;;;;;;11.02;100.00;96663.22;4929363;29;20047;-75
2023/10/21 01:30:52;;;;;;;0.00;0.00;;;;;;;10.96;100.00;96649.06;4953995;28;20031;-75
2023/10/21 01:33:17;;;;;;;0.00;0.00;;;;;;;11.00;100.00;96665.53;4947143;28;20500;-76
2023/10/21 01:35:43;;;;;;;0.00;0.00;;;;;;;10.99;100.00;96659.28;4944523;29;20037;-75
2023/10/21 01:38:09;;;;;;;0.00;0.00;;;;;;;11.09;100.00;96659.84;4929647;29;20546;-75
2023/10/21 01:40:35;;;;;;;0.10;0.10;;;;;;;11.21;100.00;96667.88;4929188;29;20032;-76
2023/10/21 01:43:01;;;;;;;0.00;0.00;;;;;;;11.27;100.00;96652.78;4943977;28;20030;-76
2023/10/21 01:45:27;;;;;;;0.00;0.00;;;;;;;11.31;100.00;96647.34;4930036;29;20034;-76
2023/10/21 01:47:53;;;;;;;0.00;0.00;;;;;;;11.39;100.00;96653.75;4932229;28;20023;-76
2023/10/21 01:50:19;;;;;;;0.00;0.00;;;;;;;11.32;100.00;96652.47;4947215;28;20385;-75
2023/10/21 01:52:44;;;;;;;0.00;0.00;;;;;;;11.31;100.00;96659.06;4940407;28;20126;-77
2023/10/21 01:55:11;;;;;;;0.00;0.00;;;;;;;11.24;100.00;96656.22;4942055;28;20038;-75
2023/10/21 01:57:37;;;;;;;0.00;0.00;;;;;;;11.14;100.00;96660.34;4934345;29;20526;-75
2023/10/21 02:00:08;;;;;;;0.00;0.00;;;;;;;11.06;100.00;96657.84;4942627;29;20154;-75
2023/10/21 02:02:35;;;;;;;0.00;0.00;;;;;;;11.00;100.00;96658.13;4954739;28;20505;-74
2023/10/21 02:05:01;;;;;;;0.00;0.00;;;;;;;10.98;100.00;96654.16;4940893;29;20106;-75
2023/10/21 02:07:27;;;;;;;0.00;0.00;;;;;;;11.00;100.00;96644.44;4942399;29;20111;-74
2023/10/21 02:09:52;;;;;;;0.00;0.00;;;;;;;11.05;100.00;96650.78;4948819;29;20080;-76
2023/10/21 02:12:17;;;;;;;0.00;0.00;;;;;;;11.00;100.00;96641.72;4940269;29;20035;-74
2023/10/21 02:14:43;;;;;;;0.00;0.00;;;;;;;11.04;100.00;96647.25;4929484;28;20043;-75
2023/10/21 02:17:08;;;;;;;0.00;0.00;;;;;;;11.00;100.00;96640.94;4940263;28;20051;-76
2023/10/21 02:19:34;;;;;;;0.00;0.00;;;;;;;10.95;100.00;96642.03;4946493;28;20478;-74
2023/10/21 02:21:59;;;;;;;0.00;0.00;;;;;;;11.00;100.00;96649.91;4944449;29;20031;-75
2023/10/21 02:24:25;;;;;;;0.00;0.00;;;;;;;10.92;100.00;96631.81;4945328;28;20038;-75
2023/10/21 02:26:51;;;;;;;0.00;0.00;;;;;;;11.00;100.00;96643.66;4928934;29;20110;-76
2023/10/21 02:29:16;;;;;;;0.00;0.00;;;;;;;11.09;100.00;96646.19;4943921;29;20170;-75
2023/10/21 02:31:52;;;;;;;0.00;0.00;;;;;;;11.12;100.00;96638.03;4934301;28;20023;-75
2023/10/21 02:34:18;;;;;;;0.00;0.00;;;;;;;11.28;100.00;96648.88;4946670;28;20467;-75
2023/10/21 02:36:45;;;;;;;0.00;0.00;;;;;;;11.35;100.00;96649.00;4931427;29;20078;-75
2023/10/21 02:39:11;;;;;;;0.00;0.00;;;;;;;11.34;100.00;96654.84;4941923;29;20032;-75
2023/10/21 02:41:37;;;;;;;0.00;0.00;;;;;;;11.33;100.00;96662.25;4945925;29;20058;-75
2023/10/21 02:44:03;;;;;;;0.00;0.00;;;;;;;11.36;100.00;96668.97;4946396;29;20386;-74
2023/10/21 02:46:28;;;;;;;0.00;0.00;;;;;;;11.35;100.00;96650.97;4929236;29;20031;-75
2023/10/21 02:48:54;;;;;;;0.00;0.00;;;;;;;11.43;100.00;96660.06;4945199;28;20039;-75
2023/10/21 02:51:19;;;;;;;0.00;0.00;;;;;;;11.52;100.00;96666.09;4939035;29;21599;-74
2023/10/21 02:53:44;;;;;;;0.00;0.00;;;;;;;11.52;100.00;96653.22;4941960;28;20460;-76
2023/10/21 02:56:13;;;;;;;0.00;0.00;;;;;;;11.59;100.00;96660.75;4943338;29;20038;-73
2023/10/21 02:58:38;;;;;;;0.00;0.00;;;;;;;11.59;100.00;96663.47;4945452;28;20164;-75
2023/10/21 03:01:15;;;;;;;0.00;0.00;;;;;;;11.59;100.00;96668.94;4946594;28;20027;-75
2023/10/21 03:03:41;;;;;;;0.00;0.00;;;;;;;11.53;100.00;96664.94;4945791;29;20031;-75
2023/10/21 03:06:08;;;;;;;0.00;0.00;;;;;;;11.48;100.00;96659.78;4927978;29;20123;-76
2023/10/21 03:08:37;;;;;;;0.00;0.00;;;;;;;11.48;100.00;96660.56;4925455;29;20359;-76
2023/10/21 03:11:06;;;;;;;0.00;0.00;;;;;;;11.47;100.00;96658.19;4931031;28;20393;-74
2023/10/21 03:13:32;;;;;;;0.00;0.00;;;;;;;11.50;100.00;96668.41;4942165;29;20031;-75
2023/10/21 03:15:59;;;;;;;0.00;0.00;;;;;;;11.50;100.00;96680.13;4946525;29;20023;-73
2023/10/21 03:18:25;;;;;;;0.00;0.00;;;;;;;11.48;100.00;96668.00;4940452;29;20026;-74
2023/10/21 03:20:51;;;;;;;0.00;0.00;;;;;;;11.42;100.00;96664.75;4927292;29;20082;-74
2023/10/21 03:23:18;;;;;;;0.00;0.00;;;;;;;11.42;100.00;96674.91;4939888;29;20114;-74
2023/10/21 03:25:53;;;;;;;0.00;0.00;;;;;;;11.46;100.00;96670.28;4943942;28;20020;-74
2023/10/21 03:28:18;;;;;;;0.00;0.00;;;;;;;11.48;100.00;96678.94;4941184;29;20070;-74
2023/10/21 03:30:46;;;;;;;0.00;0.00;;;;;;;11.45;100.00;96668.72;4924218;29;20462;-74
2023/10/21 03:33:12;;;;;;;0.00;0.00;;;;;;;11.49;100.00;96666.81;4942732;28;20023;-74
2023/10/21 03:35:37;;;;;;;0.00;0.00;;;;;;;11.56;100.00;96669.69;4910059;29;20066;-74
2023/10/21 03:38:03;;;;;;;0.00;0.00;;;;;;;11.67;100.00;96676.13;4945857;28;20035;-75
2023/10/21 03:40:29;;;;;;;0.00;0.00;;;;;;;11.68;100.00;96664.03;4939691;29;20027;-75
2023/10/21 03:42:55;;;;;;;0.00;0.00;;;;;;;11.86;100.00;96682.72;4947802;28;20024;-75
2023/10/21 03:45:21;;;;;;;0.00;0.00;;;;;;;11.84;100.00;96679.53;4941528;28;20776;-75
2023/10/21 03:47:46;;;;;;;0.00;0.00;;;;;;;11.92;100.00;96686.72;4936867;28;20058;-75
2023/10/21 03:50:11;;;;;;;0.00;0.00;;;;;;;11.95;100.00;96687.97;4953750;28;20050;-75
2023/10/21 03:52:39;;;;;;;0.00;0.00;;;;;;;11.95;100.00;96680.53;4940570;28;20060;-75
2023/10/21 03:55:05;;;;;;;0.00;0.00;;;;;;;11.98;100.00;96690.75;4927570;29;20036;-74
2023/10/21 03:57:31;;;;;;;0.00;0.00;;;;;;;12.01;100.00;96687.28;4943679;28;20031;-74
2023/10/21 03:59:58;;;;;;;0.00;0.00;;;;;;;12.01;100.00;96684.53;4928109;28;20058;-75
2023/10/21 04:02:23;;;;;;;0.00;0.00;;;;;;;12.03;100.00;96687.72;4961180;28;20390;-75
2023/10/21 04:04:49;;;;;;;0.00;0.00;;;;;;;12.08;100.00;96688.56;4941821;28;20035;-75
2023/10/21 04:07:14;;;;;;;0.00;0.00;;;;;;;12.04;100.00;96689.28;4946106;29;20038;-75
2023/10/21 04:09:39;;;;;;;0.00;0.00;;;;;;;12.10;100.00;96697.19;4943204;28;20031;-74
2023/10/21 04:12:05;;;;;;;0.00;0.00;;;;;;;12.07;100.00;96689.72;4945888;29;20591;-75
2023/10/21 04:14:30;;;;;;;0.00;0.00;;;;;;;12.10;100.00;96697.97;4926974;29;20082;-75
2023/10/21 04:16:56;;;;;;;0.00;0.00;;;;;;;12.07;100.00;96698.72;4931878;29;20046;-74
2023/10/21 04:19:21;;;;;;;0.00;0.00;;;;;;;12.03;100.00;96687.72;4949718;29;20394;-75
2023/10/21 04:21:47;;;;;;;0.00;0.00;;;;;;;12.03;100.00;96693.19;4945141;28;20027;-75
2023/10/21 04:24:15;;;;;;;0.00;0.00;;;;;;;12.00;100.00;96693.94;4962324;28;20537;-76
2023/10/21 04:26:40;;;;;;;0.00;0.00;;;;;;;12.00;100.00;96693.94;4944842;28;20042;-75
2023/10/21 04:29:06;;;;;;;0.00;0.00;;;;;;;12.02;100.00;96696.31;4945461;28;20395;-75
2023/10/21 04:31:38;;;;;;;0.00;0.00;;;;;;;12.04;100.00;96700.22;4920534;29;20038;-74
2023/10/21 04:34:04;;;;;;;0.00;0.00;;;;;;;12.04;100.00;96694.75;4940932;28;20063;-75
2023/10/21 04:36:29;;;;;;;0.10;0.10;;;;;;;12.05;100.00;96701.03;4939981;29;20107;-75
2023/10/21 04:38:55;;;;;;;0.00;0.00;;;;;;;12.07;100.00;96697.94;4942112;28;20046;-75
2023/10/21 04:41:20;;;;;;;0.00;0.00;;;;;;;12.07;100.00;96703.41;4924096;29;20134;-76
2023/10/21 04:43:46;;;;;;;0.00;0.00;;;;;;;12.10;100.00;96702.69;4926326;29;20027;-76
2023/10/21 04:46:12;;;;;;;0.00;0.00;;;;;;;12.08;100.00;96705.00;4936472;28;20054;-76
2023/10/21 04:48:37;;;;;;;0.00;0.00;;;;;;;12.11;100.00;96710.53;4943156;29;20572;-76
2023/10/21 04:51:05;;;;;;;0.00;0.00;;;;;;;12.00;100.00;96704.88;4945053;29;20030;-74
2023/10/21 04:53:30;;;;;;;0.00;0.00;;;;;;;11.92;100.00;96711.34;4945390;28;20047;-75
2023/10/21 04:55:58;;;;;;;0.00;0.00;;;;;;;11.67;100.00;96708.97;4930609;29;20385;-76
2023/10/21 04:58:24;;;;;;;0.00;0.00;;;;;;;11.77;100.00;96717.72;4946631;28;20051;-76
2023/10/21 05:00:49;;;;;;;0.00;0.00;;;;;;;11.84;100.00;96723.34;4943503;29;20063;-76
2023/10/21 05:03:15;;;;;;;0.00;0.00;;;;;;;11.81;100.00;96707.63;4928271;29;20118;-76
2023/10/21 05:05:41;;;;;;;0.00;0.00;;;;;;;11.90;100.00;96721.91;4932567;28;20027;-76
2023/10/21 05:08:07;;;;;;;0.00;0.00;;;;;;;11.96;100.00;96728.69;4943497;28;20042;-75
2023/10/21 05:10:32;;;;;;;0.00;0.00;;;;;;;11.94;100.00;96714.53;4949731;28;20059;-76
2023/10/21 05:12:57;;;;;;;0.00;0.00;;;;;;;11.92;100.00;96713.31;4940468;28;20039;-75
2023/10/21 05:15:23;;;;;;;0.00;0.00;;;;;;;11.91;100.00;96723.47;4945744;29;20031;-75
2023/10/21 05:17:49;;;;;;;0.00;0.00;;;;;;;11.81;100.00;96715.84;4948896;29;20083;-75
2023/10/21 05:20:14;;;;;;;0.00;0.00;;;;;;;11.72;100.00;96729.00;4945509;28;20028;-76
2023/10/21 05:22:40;;;;;;;0.00;0.00;;;;;;;11.56;100.00;96723.63;4963193;28;20052;-76
2023/10/21 05:25:07;;;;;;;0.00;0.00;;;;;;;11.44;100.00;96727.31;4939551;29;20015;-75
2023/10/21 05:27:34;;;;;;;0.00;0.00;;;;;;;11.37;100.00;96738.13;4958992;28;20039;-74
2023/10/21 05:30:00;;;;;;;0.00;0.00;;;;;;;11.21;100.00;96717.09;4957899;28;20537;-75
2023/10/21 05:32:27;;;;;;;0.00;0.00;;;;;;;11.17;100.00;96724.47;4930380;29;20038;-74
2023/10/21 05:34:53;;;;;;;0.00;0.00;;;;;;;11.11;100.00;96736.81;4945026;28;20066;-75
2023/10/21 05:37:18;;;;;;;0.00;0.00;;;;;;;11.05;100.00;96739.03;4923805;29;20028;-75
2023/10/21 05:39:44;;;;;;;0.00;0.00;;;;;;;10.99;100.00;96735.03;4942176;28;20367;-74
2023/10/21 05:42:09;;;;;;;0.00;0.00;;;;;;;10.92;100.00;96735.69;4930584;29;20118;-74
2023/10/21 05:44:35;;;;;;;0.00;0.00;;;;;;;10.88;100.00;96745.75;4948597;29;20086;-74
2023/10/21 05:47:00;;;;;;;0.00;0.00;;;;;;;10.81;100.00;96746.38;4948268;28;20027;-75
2023/10/21 05:49:26;;;;;;;0.00;0.00;;;;;;;10.72;100.00;96740.31;4945309;28;20023;-74
2023/10/21 05:51:51;;;;;;;0.00;0.00;;;;;;;10.69;100.00;96749.22;4947029;28;20039;-75
2023/10/21 05:54:19;;;;;;;0.00;0.00;;;;;;;10.61;100.00;96745.53;4947692;28;20122;-74
2023/10/21 05:56:45;;;;;;;0.00;0.00;;;;;;;10.60;100.00;96752.16;4928657;29;20187;-75
2023/10/21 05:59:10;;;;;;;0.00;0.00;;;;;;;10.53;100.00;96751.19;4955305;28;20522;-75
2023/10/21 06:01:36;;;;;;;0.00;0.00;;;;;;;10.51;100.00;96757.00;4928999;29;20054;-74
2023/10/21 06:04:01;;;;;;;0.00;0.00;;;;;;;10.48;100.00;96755.81;4946873;29;20035;-75
2023/10/21 06:06:27;;;;;;;0.00;0.00;;;;;;;10.46;100.00;96757.28;4940989;28;20027;-75
2023/10/21 06:08:52;;;;;;;0.00;0.00;;;;;;;10.51;100.00;96759.75;4947201;28;20153;-76
2023/10/21 06:11:18;;;;;;;0.00;0.00;;;;;;;10.51;100.00;96748.81;4944761;28;20350;-75
2023/10/21 06:13:43;;;;;;;0.00;0.00;;;;;;;10.64;100.00;96763.16;4939600;28;20031;-75
2023/10/21 06:16:08;;;;;;;0.00;0.00;;;;;;;10.68;100.00;96752.31;4939646;28;20044;-75
2023/10/21 06:18:34;;;;;;;0.00;0.00;;;;;;;10.61;100.00;96751.00;4920957;29;20050;-75
2023/10/21 06:21:03;;;;;;;0.00;0.00;;;;;;;10.61;100.00;96759.19;4947048;28;20039;-77
2023/10/21 06:23:31;;;;;;;0.00;0.00;;;;;;;10.64;100.00;96769.44;4918491;29;20035;-76
2023/10/21 06:25:56;;;;;;;0.00;0.00;;;;;;;10.69;100.00;96767.56;4944646;29;20390;-76
2023/10/21 06:28:22;;;;;;;0.00;0.00;;;;;;;10.68;100.00;96764.03;4931540;29;20045;-77
2023/10/21 06:30:48;;;;;;;0.00;0.00;;;;;;;10.64;100.00;96766.69;4947166;29;20031;-76
2023/10/21 06:33:13;;;;;;;0.00;0.00;;;;;;;10.65;100.00;96764.75;4944782;28;20738;-74
2023/10/21 06:35:39;;;;;;;0.00;0.00;;;;;;;10.63;100.00;96764.28;4944604;29;20394;-76
2023/10/21 06:38:08;;;;;;;0.00;0.00;;;;;;;10.63;100.00;96778.78;4952531;28;20027;-76
2023/10/21 06:40:34;;;;;;;0.00;0.00;;;;;;;10.60;100.00;96771.28;4941054;28;20121;-75
2023/10/21 06:42:59;;;;;;;0.00;0.00;;;;;;;10.63;100.00;96784.22;4949058;28;20051;-76
2023/10/21 06:45:25;;;;;;;0.00;0.00;;;;;;;10.64;100.00;96791.28;4958622;28;20443;-76
2023/10/21 06:47:51;;;;;;;0.00;0.00;;;;;;;10.69;100.00;96797.59;4932251;28;20035;-74
2023/10/21 06:50:16;;;;;;;0.00;0.00;;;;;;;10.70;100.00;96799.97;4947815;28;20032;-75
2023/10/21 06:53:02;;;;;;;0.00;0.00;;;;;;;10.81;100.00;96800.25;4945128;28;20070;-74
2023/10/21 06:55:28;;;;;;;0.00;0.00;;;;;;;10.87;100.00;96801.53;4946516;28;20038;-74
2023/10/21 06:57:53;;;;;;;0.00;0.00;;;;;;;10.89;100.00;96801.19;4931183;29;20020;-76
2023/10/21 07:00:19;;;;;;;0.00;0.00;;;;;;;10.87;100.00;96795.28;4948212;28;20050;-75
2023/10/21 07:02:45;;;;;;;0.00;0.00;;;;;;;10.93;100.00;96802.84;4924644;28;20032;-75
2023/10/21 07:05:11;;;;;;;0.00;0.00;;;;;;;10.94;100.00;96809.91;4945710;29;20069;-76
2023/10/21 07:07:40;;;;;;;0.00;0.00;;;;;;;10.97;100.00;96817.38;4944659;29;20031;-75
2023/10/21 07:10:12;;;;;;;0.00;0.00;;;;;;;11.01;100.00;96814.75;4954216;28;20036;-75
2023/10/21 07:12:38;;;;;;;0.00;0.00;;;;;;;11.13;100.00;96819.31;4955767;28;20024;-75
2023/10/21 07:15:04;;;;;;;0.00;0.00;;;;;;;11.25;100.00;96823.84;4929064;29;20762;-74
2023/10/21 07:17:31;;;;;;;0.00;0.00;;;;;;;11.44;100.00;96831.28;4940831;28;20054;-74
2023/10/21 07:19:57;;;;;;;0.00;0.00;;;;;;;11.57;100.00;96829.97;4939729;28;20035;-76
2023/10/21 07:22:22;;;;;;;0.00;0.00;;;;;;;11.57;100.00;96821.75;4946930;29;20038;-75
2023/10/21 07:24:48;;;;;;;0.00;0.00;;;;;;;11.66;100.00;96816.06;4923045;29;20035;-74
2023/10/21 07:27:13;;;;;;;0.00;0.00;;;;;;;11.82;100.00;96829.69;4941668;29;20039;-75
2023/10/21 07:29:42;;;;;;;0.00;0.00;;;;;;;11.83;100.00;96820.31;4948597;29;20035;-75
2023/10/21 07:32:10;;;;;;;0.00;0.00;;;;;;;12.00;100.00;96825.38;4941423;29;20042;-75
2023/10/21 07:34:36;;;;;;;0.00;0.00;;;;;;;12.36;100.00;96853.38;4953542;28;20027;-75
2023/10/21 07:37:02;;;;;;;0.00;0.00;;;;;;;12.50;100.00;96835.59;4935941;28;20050;-76
2023/10/21 07:39:28;;;;;;;0.00;0.00;;;;;;;12.86;100.00;96858.09;4947539;28;20027;-75
2023/10/21 07:41:54;;;;;;;0.00;0.00;;;;;;;13.05;100.00;96859.94;4941797;28;20482;-75
2023/10/21 07:44:20;;;;;;;0.00;0.00;;;;;;;13.20;100.00;96855.44;4933667;28;20024;-75
2023/10/21 07:46:46;;;;;;;0.00;0.00;;;;;;;13.42;100.00;96867.56;4942690;29;20035;-76
2023/10/21 07:49:12;;;;;;;0.00;0.00;;;;;;;13.44;100.00;96865.22;4936746;28;20030;-75
2023/10/21 07:51:37;;;;;;;0.00;0.00;;;;;;;13.42;100.00;96879.31;4943828;29;20505;-75
2023/10/21 07:54:06;;;;;;;0.00;0.00;;;;;;;13.35;100.00;96867.47;4939282;29;20055;-75
2023/10/21 07:56:32;;;;;;;0.00;0.00;;;;;;;13.38;100.00;96875.72;4956022;28;20027;-76
2023/10/21 07:58:58;;;;;;;0.00;0.00;;;;;;;13.47;100.00;96882.91;4941081;29;20078;-77
2023/10/21 08:01:24;;;;;;;0.00;0.00;;;;;;;13.41;100.00;96877.72;4939318;28;20027;-76
2023/10/21 08:03:49;;;;;;;0.00;0.00;;;;;;;13.45;100.00;96877.78;4942689;29;20023;-77
2023/10/21 08:06:18;;;;;;;0.00;0.00;;;;;;;13.54;100.00;96899.47;4937652;29;20741;-77
2023/10/21 08:08:44;;;;;;;0.00;0.00;;;;;;;13.39;100.00;96879.25;4939671;28;20035;-75
2023/10/21 08:11:17;;;;;;;0.00;0.00;;;;;;;13.48;100.00;96895.44;4940030;28;20046;-75
2023/10/21 08:13:42;;;;;;;0.00;0.00;;;;;;;13.54;100.00;96902.22;4940863;28;20015;-74
2023/10/21 08:16:08;;;;;;;0.00;0.00;;;;;;;13.55;100.00;96906.53;4947847;28;20031;-75
2023/10/21 08:18:33;;;;;;;0.00;0.00;;;;;;;13.54;100.00;96907.72;4937906;28;20034;-75
2023/10/21 08:20:58;;;;;;;0.00;0.00;;;;;;;13.56;100.00;96905.38;4945948;28;20509;-74
2023/10/21 08:23:24;;;;;;;0.00;0.00;;;;;;;13.60;100.00;96908.97;4919676;29;20054;-76
2023/10/21 08:25:49;;;;;;;0.00;0.00;;;;;;;13.64;100.00;96912.56;4942624;28;20091;-75
2023/10/21 08:28:16;;;;;;;0.00;0.00;;;;;;;13.74;100.00;96916.59;4943440;28;20027;-75
2023/10/21 08:30:41;;;;;;;0.00;0.00;;;;;;;13.75;100.00;96904.44;4952970;28;20043;-75
2023/10/21 08:33:09;;;;;;;0.00;0.00;;;;;;;13.78;100.00;96904.50;4944544;29;20027;-75
2023/10/21 08:35:34;;;;;;;0.00;0.00;;;;;;;14.03;100.00;96930.69;4937028;28;20039;-74
2023/10/21 08:38:00;;;;;;;0.00;0.00;;;;;;;14.10;100.00;96919.78;4932105;29;20501;-75
2023/10/21 08:40:25;;;;;;;0.00;0.00;;;;;;;14.28;100.00;96928.22;4928916;29;20039;-75
2023/10/21 08:42:54;;;;;;;0.00;0.00;;;;;;;14.40;100.00;96914.22;4947387;29;20046;-75
2023/10/21 08:45:28;;;;;;;0.00;0.00;;;;;;;14.59;100.00;96909.69;4925445;29;20023;-75
2023/10/21 08:47:57;;;;;;;0.00;0.00;;;;;;;14.75;100.00;96918.50;4928961;28;20097;-74
2023/10/21 08:50:24;;;;;;;0.00;0.00;;;;;;;14.79;100.00;96908.34;4957006;28;20035;-74
2023/10/21 08:52:54;;;;;;;0.00;0.00;;;;;;;15.03;100.00;96939.19;4951393;28;20066;-76
2023/10/21 08:55:20;;;;;;;0.00;0.00;;;;;;;15.11;100.00;96935.34;4938050;28;20074;-73
2023/10/21 08:57:48;;;;;;;0.00;0.00;;;;;;;15.25;100.00;96937.38;4959435;28;20039;-77
2023/10/21 09:00:14;;;;;;;0.00;0.00;;;;;;;15.37;100.00;96947.31;4927443;29;20651;-76
2023/10/21 09:02:44;;;;;;;0.00;0.00;;;;;;;15.43;100.00;96945.75;4945659;29;20042;-77
2023/10/21 09:05:11;;;;;;;0.00;0.00;;;;;;;15.52;100.00;96953.69;4946053;29;20114;-76
2023/10/21 09:07:49;;;;;;;0.00;0.00;;;;;;;15.64;100.00;96955.34;4952693;28;20114;-77
2023/10/21 09:10:16;;;;;;;0.00;0.00;;;;;;;15.78;100.00;96955.44;4938441;29;20047;-76
2023/10/21 09:12:42;;;;;;;0.00;0.00;;;;;;;15.91;100.00;96953.16;4942738;28;20122;-77
2023/10/21 09:15:09;;;;;;;0.00;0.00;;;;;;;16.12;100.00;96968.22;4955433;28;20518;-76
2023/10/21 09:17:40;;;;;;;0.00;0.00;;;;;;;16.22;100.00;96973.78;4942918;28;20119;-77
2023/10/21 09:20:09;;;;;;;0.00;0.00;;;;;;;16.25;100.00;96965.91;4956104;28;20042;-76
2023/10/21 09:22:40;;;;;;;0.00;0.00;;;;;;;16.28;100.00;96967.88;4944098;28;20035;-77
2023/10/21 09:25:22;;;;;;;0.00;0.00;;;;;;;16.41;100.00;96977.38;4942414;28;20027;-77
2023/10/21 09:28:19;;;;;;;0.00;0.00;;;;;;;16.50;100.00;96977.00;4945383;28;20031;-78
2023/10/21 09:31:02;;;;;;;0.00;0.00;;;;;;;16.63;100.00;96975.50;4956851;28;20038;-75
2023/10/21 09:33:28;;;;;;;0.05;0.05;;;;;;;16.93;99.70;97000.00;4943864;29;20023;-74
2023/10/21 09:36:04;;;;;;;0.00;0.00;;;;;;;17.03;99.02;97003.19;4941126;29;20405;-75
2023/10/21 09:38:36;;;;;;;0.00;0.00;;;;;;;17.14;99.10;97003.97;4943527;29;20031;-74
2023/10/21 09:41:09;;;;;;;0.00;0.00;;;;;;;17.28;98.24;97008.72;4933249;28;20061;-75
2023/10/21 09:43:38;;;;;;;0.00;0.00;;;;;;;17.30;98.07;97014.63;4944968;28;20126;-76
2023/10/21 09:46:05;;;;;;;0.00;0.00;;;;;;;17.32;97.86;97015.03;4947257;28;20019;-75
2023/10/21 09:48:38;;;;;;;0.00;0.00;;;;;;;17.31;97.68;97012.66;4948519;28;20054;-75
2023/10/21 09:51:09;;;;;;;0.00;0.00;;;;;;;17.31;97.78;97024.50;4946321;28;20711;-77
2023/10/21 09:53:39;;;;;;;0.00;0.00;;;;;;;17.19;98.23;97016.59;4949271;28;20078;-75
2023/10/21 09:56:15;;;;;;;0.00;0.00;;;;;;;17.05;98.31;97012.63;4941905;28;20032;-74
2023/10/21 09:58:43;;;;;;;0.00;0.00;;;;;;;17.13;98.82;97035.53;4951331;29;20402;-75
2023/10/21 10:01:10;;;;;;;0.00;0.00;;;;;;;17.14;98.61;97028.81;4943627;28;20151;-75
2023/10/21 10:03:36;;;;;;;0.00;0.00;;;;;;;17.23;98.16;97036.69;4931622;29;20055;-76
2023/10/21 10:06:04;;;;;;;0.00;0.00;;;;;;;17.38;97.68;97037.53;4948202;29;20050;-73
2023/10/21 10:08:31;;;;;;;0.00;0.00;;;;;;;17.54;96.86;97032.41;4934071;28;20032;-74
2023/10/21 10:11:01;;;;;;;0.00;0.00;;;;;;;17.78;95.81;97032.75;4956767;28;20379;-76
2023/10/21 10:13:29;;;;;;;0.00;0.00;;;;;;;17.92;94.41;97026.47;4943679;28;20478;-76
2023/10/21 10:15:55;;;;;;;0.00;0.00;;;;;;;18.26;94.21;97059.16;4948532;28;20035;-73
2023/10/21 10:18:21;;;;;;;0.00;0.00;;;;;;;18.45;92.98;97041.31;4942077;28;20087;-72
2023/10/21 10:20:53;;;;;;;0.00;0.00;;;;;;;18.69;92.22;97047.97;4939598;29;20042;-74
2023/10/21 10:23:24;;;;;;;0.00;0.00;;;;;;;19.04;91.34;97046.22;4958642;28;20054;-73
2023/10/21 10:25:51;;;;;;;0.00;0.00;;;;;;;19.39;89.33;97032.50;4946030;28;20123;-75
2023/10/21 10:28:26;;;;;;;0.00;0.00;;;;;;;19.88;87.74;97052.72;4942539;28;20470;-75
2023/10/21 10:31:00;;;;;;;0.00;0.00;;;;;;;20.00;85.88;97037.56;4946255;28;20031;-73
2023/10/21 10:33:33;;;;;;;0.00;0.00;;;;;;;20.11;85.05;97043.00;4956675;28;20114;-73
2023/10/21 10:36:06;;;;;;;0.00;0.00;;;;;;;20.16;84.56;97053.63;4933074;28;20728;-73
2023/10/21 10:38:34;;;;;;;0.00;0.00;;;;;;;20.15;83.69;97072.28;4956212;28;20082;-74
2023/10/21 10:41:15;;;;;;;0.00;0.00;;;;;;;19.94;83.96;97062.16;4938396;28;20024;-74
2023/10/21 10:44:01;;;;;;;0.00;0.00;;;;;;;19.60;84.02;97051.75;4937430;28;20035;-73
2023/10/21 10:46:36;;;;;;;0.00;0.00;;;;;;;19.31;84.27;97054.72;4945257;28;20023;-74
2023/10/21 10:49:05;;;;;;;0.00;0.00;;;;;;;19.20;84.45;97070.63;4939982;28;20024;-74
2023/10/21 10:51:44;;;;;;;0.00;0.00;;;;;;;19.06;84.56;97079.03;4942887;28;20030;-73
2023/10/21 10:54:15;;;;;;;0.00;0.00;;;;;;;18.92;84.81;97068.81;4933244;29;20098;-74
2023/10/21 10:56:46;;;;;;;0.00;0.00;;;;;;;18.93;84.57;97060.09;4939782;29;20431;-73
2023/10/21 10:59:17;;;;;;;0.00;0.00;;;;;;;19.26;83.52;97090.38;4933100;29;20055;-73
2023/10/21 11:01:43;;;;;;;0.00;0.00;;;;;;;19.53;82.33;97096.91;4928947;29;20027;-74
2023/10/21 11:04:09;;;;;;;0.00;0.00;;;;;;;19.68;80.63;97100.41;4945271;28;20122;-74
2023/10/21 11:06:36;;;;;;;0.00;0.00;;;;;;;19.50;80.16;97080.34;4940705;29;20138;-74
2023/10/21 11:09:16;;;;;;;0.00;0.00;;;;;;;19.29;80.33;97107.00;4946156;29;20035;-73
2023/10/21 11:11:46;;;;;;;0.00;0.00;;;;;;;18.77;81.48;97098.53;4941661;28;20034;-73
2023/10/21 11:14:15;;;;;;;0.00;0.00;;;;;;;18.40;81.89;97105.34;4961285;28;20389;-74
2023/10/21 11:16:41;;;;;;;0.00;0.00;;;;;;;18.17;82.57;97103.81;4940243;28;20026;-76
2023/10/21 11:19:07;;;;;;;0.00;0.00;;;;;;;17.92;83.02;97112.94;4947075;28;20023;-72
2023/10/21 11:21:39;;;;;;;0.00;0.00;;;;;;;17.59;83.63;97101.03;4939580;28;20043;-73
2023/10/21 11:24:06;;;;;;;0.00;0.00;;;;;;;17.63;83.74;97123.16;4939848;29;20359;-73
2023/10/21 11:26:32;;;;;;;0.00;0.00;;;;;;;17.44;83.61;97125.09;4957862;28;20031;-74